createdAt,value
2019-06-01T00:02:57.133Z,19.32
2019-06-01T00:07:59.891Z,19.24
2019-06-01T00:13:02.644Z,19.15
2019-06-01T00:18:05.430Z,19.12
2019-06-01T00:23:08.321Z,19.12
2019-06-01T00:28:10.823Z,19.10
2019-06-01T00:33:13.619Z,19.10
2019-06-01T00:38:17.251Z,19.10
2019-06-01T00:43:19.410Z,19.07
2019-06-01T00:48:21.563Z,18.99
2019-06-01T00:53:24.192Z,18.91
2019-06-01T00:58:26.337Z,18.89
2019-06-01T01:03:28.505Z,18.86
2019-06-01T01:08:30.700Z,18.82
2019-06-01T01:13:33.751Z,18.83
2019-06-01T01:18:37.321Z,18.78
2019-06-01T01:23:40.010Z,18.73
2019-06-01T01:28:43.490Z,18.70
2019-06-01T01:33:45.627Z,18.67
2019-06-01T01:38:48.328Z,18.63
2019-06-01T01:43:50.531Z,18.60
2019-06-01T01:48:54.060Z,18.57
2019-06-01T01:53:56.839Z,18.50
2019-06-01T01:58:59.989Z,18.46
2019-06-01T02:04:03.359Z,18.43
2019-06-01T02:09:07.355Z,18.43
2019-06-01T02:14:09.598Z,18.35
2019-06-01T02:19:11.787Z,18.34
2019-06-01T02:24:14.694Z,18.34
2019-06-01T02:29:17.161Z,18.31
2019-06-01T02:34:20.582Z,18.27
2019-06-01T02:39:23.186Z,18.26
2019-06-01T02:44:25.686Z,18.21
2019-06-01T02:49:28.887Z,18.22
2019-06-01T02:54:31.906Z,18.20
2019-06-01T02:59:34.987Z,18.19
2019-06-01T03:04:37.881Z,18.16
2019-06-01T03:09:41.405Z,18.11
2019-06-01T03:14:50.376Z,18.07
2019-06-01T03:19:57.361Z,18.03
2019-06-01T03:25:04.367Z,18.00
2019-06-01T03:30:12.370Z,17.92
2019-06-01T03:35:14.132Z,17.86
2019-06-01T03:40:23.813Z,17.74
2019-06-01T03:45:20.683Z,17.69
2019-06-01T03:50:23.426Z,17.62
2019-06-01T03:55:25.814Z,17.57
2019-06-01T04:00:28.662Z,17.49
2019-06-01T04:05:30.940Z,17.48
2019-06-01T04:10:33.121Z,17.49
2019-06-01T04:15:35.452Z,17.53
2019-06-01T04:20:38.223Z,17.55
2019-06-01T04:25:40.868Z,17.56
2019-06-01T04:30:43.593Z,17.53
2019-06-01T04:35:46.103Z,17.48
2019-06-01T04:40:48.871Z,17.41
2019-06-01T04:45:51.392Z,17.41
2019-06-01T04:50:53.973Z,17.47
2019-06-01T04:55:56.979Z,17.52
2019-06-01T05:00:59.169Z,17.56
2019-06-01T05:06:02.124Z,17.67
2019-06-01T05:11:06.832Z,17.76
2019-06-01T05:16:09.952Z,17.94
2019-06-01T05:21:13.423Z,18.08
2019-06-01T05:26:17.227Z,18.21
2019-06-01T05:31:24.928Z,18.42
2019-06-01T05:36:24.140Z,-45.12
2019-06-01T05:41:27.364Z,18.61
2019-06-01T05:46:30.207Z,18.61
2019-06-01T05:51:32.700Z,18.82
2019-06-01T05:56:35.181Z,18.82
2019-06-01T06:01:38.477Z,18.91
2019-06-01T06:06:41.580Z,19.00
2019-06-01T06:11:44.136Z,19.07
2019-06-01T06:16:46.903Z,19.10
2019-06-01T06:21:49.073Z,19.15
2019-06-01T06:26:51.536Z,19.15
2019-06-01T06:31:54.009Z,19.15
2019-06-01T06:36:56.506Z,19.29
2019-06-01T06:41:58.658Z,19.48
2019-06-01T06:47:00.928Z,19.66
2019-06-01T06:52:03.095Z,19.68
2019-06-01T06:57:05.258Z,19.71
2019-06-01T07:02:07.460Z,19.87
2019-06-01T07:07:10.270Z,20.10
2019-06-01T07:12:12.443Z,20.15
2019-06-01T07:17:15.986Z,20.29
2019-06-01T07:22:19.611Z,20.49
2019-06-01T07:27:22.072Z,21.59
2019-06-01T07:32:26.679Z,23.05
2019-06-01T07:37:28.982Z,24.42
2019-06-01T07:42:32.970Z,25.32
2019-06-01T07:47:35.766Z,25.73
2019-06-01T07:52:37.989Z,26.58
2019-06-01T07:57:43.371Z,27.08
2019-06-01T08:02:45.261Z,28.24
2019-06-01T08:07:48.255Z,29.58
2019-06-01T08:12:51.149Z,30.00
2019-06-01T08:17:53.272Z,29.77
2019-06-01T08:22:55.601Z,27.88
2019-06-01T08:27:58.336Z,28.02
2019-06-01T08:33:01.329Z,27.84
2019-06-01T08:38:03.934Z,28.12
2019-06-01T08:43:06.085Z,28.39
2019-06-01T08:48:08.518Z,28.20
2019-06-01T08:53:10.909Z,27.69
2019-06-01T08:58:13.735Z,28.05
2019-06-01T09:03:16.283Z,27.89
2019-06-01T09:08:18.520Z,28.56
2019-06-01T09:13:21.386Z,28.92
2019-06-01T09:18:23.616Z,29.50
2019-06-01T09:23:25.766Z,28.85
2019-06-01T09:28:28.004Z,28.47
2019-06-01T09:33:30.258Z,28.87
2019-06-01T09:38:33.763Z,29.76
2019-06-01T09:43:37.242Z,29.74
2019-06-01T09:48:39.458Z,29.74
2019-06-01T09:53:42.491Z,28.83
2019-06-01T09:58:44.639Z,28.93
2019-06-01T10:03:46.821Z,28.49
2019-06-01T10:08:48.984Z,28.74
2019-06-01T10:13:51.344Z,29.02
2019-06-01T10:18:55.000Z,29.25
2019-06-01T10:23:57.777Z,27.88
2019-06-01T10:29:00.734Z,27.93
2019-06-01T10:34:03.904Z,28.54
2019-06-01T10:39:06.902Z,29.29
2019-06-01T10:44:10.315Z,29.50
2019-06-01T10:49:12.461Z,28.91
2019-06-01T10:54:15.370Z,28.07
2019-06-01T10:59:18.530Z,28.29
2019-06-01T11:04:21.188Z,28.45
2019-06-01T11:09:23.819Z,29.80
2019-06-01T11:14:26.321Z,29.86
2019-06-01T11:19:28.801Z,28.97
2019-06-01T11:24:30.990Z,29.50
2019-06-01T11:29:37.673Z,29.74
2019-06-01T11:34:38.456Z,29.82
2019-06-01T11:39:40.683Z,29.77
2019-06-01T11:44:43.476Z,29.95
2019-06-01T11:49:46.178Z,29.82
2019-06-01T11:54:48.858Z,29.53
2019-06-01T11:59:51.308Z,29.98
2019-06-01T12:04:53.474Z,30.29
2019-06-01T12:09:55.683Z,30.56
2019-06-01T12:14:57.928Z,31.08
2019-06-01T12:20:00.437Z,31.39
2019-06-01T12:25:03.480Z,31.63
2019-06-01T12:30:07.609Z,30.60
2019-06-01T12:35:10.101Z,31.23
2019-06-01T12:40:13.348Z,30.20
2019-06-01T12:45:17.564Z,30.36
2019-06-01T12:50:20.011Z,30.30
2019-06-01T12:55:22.600Z,30.86
2019-06-01T13:00:26.140Z,31.66
2019-06-01T13:05:28.433Z,32.04
2019-06-01T13:10:30.628Z,31.80
2019-06-01T13:15:32.918Z,32.28
2019-06-01T13:20:35.931Z,31.95
2019-06-01T13:25:41.403Z,31.70
2019-06-01T13:30:45.954Z,31.95
2019-06-01T13:35:48.518Z,32.11
2019-06-01T13:40:51.393Z,32.13
2019-06-01T13:45:53.955Z,32.13
2019-06-01T13:50:57.240Z,32.43
2019-06-01T13:55:59.399Z,32.53
2019-06-01T14:01:01.540Z,32.62
2019-06-01T14:06:04.434Z,32.51
2019-06-01T14:11:06.640Z,32.23
2019-06-01T14:16:09.535Z,31.95
2019-06-01T14:21:11.897Z,31.74
2019-06-01T14:26:14.876Z,31.26
2019-06-01T14:31:17.385Z,30.87
2019-06-01T14:36:19.644Z,30.54
2019-06-01T14:41:22.494Z,30.33
2019-06-01T14:46:25.182Z,30.26
2019-06-01T14:51:27.403Z,30.17
2019-06-01T14:56:30.219Z,30.03
2019-06-01T15:01:33.299Z,29.84
2019-06-01T15:06:36.074Z,29.65
2019-06-01T15:11:39.291Z,29.53
2019-06-01T15:16:42.511Z,29.61
2019-06-01T15:21:45.887Z,29.54
2019-06-01T15:26:48.331Z,29.51
2019-06-01T15:31:51.387Z,29.45
2019-06-01T15:36:53.875Z,29.44
2019-06-01T15:41:57.115Z,29.49
2019-06-01T15:47:00.121Z,29.45
2019-06-01T15:52:03.098Z,29.37
2019-06-01T15:57:05.578Z,29.35
2019-06-01T16:02:08.061Z,29.22
2019-06-01T16:07:10.476Z,29.16
2019-06-01T16:12:13.382Z,29.00
2019-06-01T16:17:15.956Z,28.72
2019-06-01T16:22:18.500Z,28.72
2019-06-01T16:27:21.052Z,28.66
2019-06-01T16:32:23.235Z,28.66
2019-06-01T16:37:25.601Z,28.57
2019-06-01T16:42:28.231Z,28.47
2019-06-01T16:47:30.469Z,28.49
2019-06-01T16:52:32.759Z,28.34
2019-06-01T16:57:36.048Z,28.29
2019-06-01T17:02:39.186Z,28.38
2019-06-01T17:07:41.706Z,28.25
2019-06-01T17:12:44.832Z,28.16
2019-06-01T17:17:48.010Z,28.10
2019-06-01T17:22:50.809Z,28.03
2019-06-01T17:27:53.026Z,27.98
2019-06-01T17:32:55.219Z,27.89
2019-06-01T17:37:58.699Z,27.86
2019-06-01T17:43:01.727Z,27.80
2019-06-01T17:48:21.633Z,27.72
2019-06-01T17:53:10.296Z,27.70
2019-06-01T17:58:12.816Z,27.80
2019-06-01T18:03:15.379Z,27.86
2019-06-01T18:08:17.596Z,27.90
2019-06-01T18:13:22.281Z,27.91
2019-06-01T18:18:25.172Z,27.88
2019-06-01T18:23:27.939Z,27.85
2019-06-01T18:28:31.111Z,27.82
2019-06-01T18:33:33.693Z,27.75
2019-06-01T18:39:19.230Z,27.67
2019-06-01T18:44:21.884Z,27.59
2019-06-01T18:49:24.476Z,27.47
2019-06-01T18:54:26.788Z,27.38
2019-06-01T18:59:29.163Z,27.27
2019-06-01T19:04:31.660Z,27.18
2019-06-01T19:09:34.008Z,27.04
2019-06-01T19:14:37.066Z,26.86
2019-06-01T19:19:39.610Z,26.70
2019-06-01T19:24:42.557Z,26.54
2019-06-01T19:29:45.385Z,26.43
2019-06-01T19:34:48.489Z,26.29
2019-06-01T19:39:52.740Z,26.14
2019-06-01T19:44:55.412Z,25.99
2019-06-01T19:49:57.764Z,25.89
2019-06-01T19:55:01.171Z,25.77
2019-06-01T20:00:04.604Z,25.68
2019-06-01T20:05:07.340Z,25.56
2019-06-01T20:10:10.539Z,25.40
2019-06-01T20:15:15.478Z,25.30
2019-06-01T20:20:20.488Z,25.18
2019-06-01T20:25:23.525Z,25.08
2019-06-01T20:30:26.322Z,24.97
2019-06-01T20:35:29.297Z,24.83
2019-06-01T20:40:31.556Z,24.68
2019-06-01T20:45:33.706Z,24.55
2019-06-01T20:50:36.385Z,24.41
2019-06-01T20:55:39.156Z,24.30
2019-06-01T21:00:41.710Z,24.22
2019-06-01T21:05:44.162Z,24.11
2019-06-01T21:10:46.638Z,24.07
2019-06-01T21:15:49.061Z,23.98
2019-06-01T21:20:51.496Z,23.87
2019-06-01T21:25:55.770Z,23.72
2019-06-01T21:30:58.967Z,23.60
2019-06-01T21:36:01.583Z,23.50
2019-06-01T21:41:03.753Z,23.42
2019-06-01T21:46:06.640Z,23.31
2019-06-01T21:51:08.824Z,23.22
2019-06-01T21:56:11.327Z,23.16
2019-06-01T22:01:13.852Z,23.11
2019-06-01T22:06:17.064Z,23.05
2019-06-01T22:11:19.456Z,22.97
2019-06-01T22:16:23.680Z,22.91
2019-06-01T22:21:27.831Z,22.85
2019-06-01T22:26:30.470Z,22.77
2019-06-01T22:31:32.747Z,22.80
2019-06-01T22:36:36.173Z,22.83
2019-06-01T22:41:38.703Z,22.84
2019-06-01T22:46:41.439Z,22.78
2019-06-01T22:51:43.606Z,22.68
2019-06-01T22:56:46.641Z,22.62
2019-06-01T23:01:50.396Z,22.56
2019-06-01T23:06:52.855Z,22.52
2019-06-01T23:11:55.149Z,22.47
2019-06-01T23:17:00.523Z,22.38
2019-06-01T23:22:03.786Z,22.28
2019-06-01T23:27:06.918Z,22.18
2019-06-01T23:32:09.051Z,22.08
2019-06-01T23:37:11.495Z,22.01
2019-06-01T23:42:13.633Z,21.90
2019-06-01T23:47:15.919Z,21.77
2019-06-01T23:52:18.845Z,21.70
2019-06-01T23:57:21.375Z,21.69
